sensor_id;sensor_type;location;lat;lon;timestamp;pressure;altitude;pressure_sealevel;temperature;humidity
11643;BME280;5877;50.930;6.918;2023-12-28T00:04:35;100584.84;;;12.40;62.46
11643;BME280;5877;50.930;6.918;2023-12-28T00:09:29;100588.13;;;12.06;63.75
11643;BME280;5877;50.930;6.918;2023-12-28T00:14:22;100571.81;;;12.15;63.79
11643;BME280;5877;50.930;6.918;2023-12-28T00:19:14;100597.88;;;12.35;64.18
11643;BME280;5877;50.930;6.918;2023-12-28T00:24:08;100603.75;;;12.19;65.25
11643;BME280;5877;50.930;6.918;2023-12-28T00:29:01;100448.13;;;11.25;66.16
11643;BME280;5877;50.930;6.918;2023-12-28T00:33:54;100489.50;;;11.30;66.59
11643;BME280;5877;50.930;6.918;2023-12-28T00:39:04;100562.06;;;11.67;67.03
11643;BME280;5877;50.930;6.918;2023-12-28T00:44:02;100538.50;;;11.79;66.48
11643;BME280;5877;50.930;6.918;2023-12-28T00:49:01;100508.59;;;11.74;65.67
11643;BME280;5877;50.930;6.918;2023-12-28T00:53:55;100622.09;;;12.25;66.22
11643;BME280;5877;50.930;6.918;2023-12-28T00:58:49;100646.13;;;12.29;66.12
11643;BME280;5877;50.930;6.918;2023-12-28T01:03:43;100611.34;;;12.27;66.22
11643;BME280;5877;50.930;6.918;2023-12-28T01:08:39;100638.69;;;12.08;66.68
11643;BME280;5877;50.930;6.918;2023-12-28T01:13:33;100635.63;;;12.11;66.98
11643;BME280;5877;50.930;6.918;2023-12-28T01:18:33;100407.00;;;10.39;67.00
11643;BME280;5877;50.930;6.918;2023-12-28T01:23:30;100678.91;;;11.96;67.55
11643;BME280;5877;50.930;6.918;2023-12-28T01:28:23;100641.84;;;11.98;66.96
11643;BME280;5877;50.930;6.918;2023-12-28T01:33:16;100600.53;;;11.44;68.37
11643;BME280;5877;50.930;6.918;2023-12-28T01:38:10;100674.66;;;11.95;68.50
11643;BME280;5877;50.930;6.918;2023-12-28T01:43:03;100676.19;;;12.03;68.67
11643;BME280;5877;50.930;6.918;2023-12-28T01:47:57;100605.78;;;11.44;68.91
11643;BME280;5877;50.930;6.918;2023-12-28T01:52:52;100700.59;;;12.10;68.05
11643;BME280;5877;50.930;6.918;2023-12-28T01:57:46;100656.44;;;11.76;68.72
11643;BME280;5877;50.930;6.918;2023-12-28T02:02:39;100486.69;;;10.63;68.74
11643;BME280;5877;50.930;6.918;2023-12-28T02:07:36;100624.94;;;11.69;68.71
11643;BME280;5877;50.930;6.918;2023-12-28T02:12:31;100615.41;;;11.31;69.81
11643;BME280;5877;50.930;6.918;2023-12-28T02:17:32;100686.13;;;11.83;69.99
11643;BME280;5877;50.930;6.918;2023-12-28T02:22:27;100690.81;;;11.74;70.35
11643;BME280;5877;50.930;6.918;2023-12-28T02:27:20;100646.78;;;11.69;68.76
11643;BME280;5877;50.930;6.918;2023-12-28T02:32:14;100711.66;;;12.19;68.82
11643;BME280;5877;50.930;6.918;2023-12-28T02:37:16;100496.41;;;10.63;69.32
11643;BME280;5877;50.930;6.918;2023-12-28T02:42:14;100608.84;;;11.41;69.35
11643;BME280;5877;50.930;6.918;2023-12-28T02:47:07;100707.69;;;12.10;68.99
11643;BME280;5877;50.930;6.918;2023-12-28T02:52:07;100685.84;;;11.91;69.06
11643;BME280;5877;50.930;6.918;2023-12-28T02:57:04;100678.47;;;11.75;70.09
11643;BME280;5877;50.930;6.918;2023-12-28T03:02:12;100665.16;;;11.51;70.38
11643;BME280;5877;50.930;6.918;2023-12-28T03:07:15;100673.81;;;11.77;70.49
11643;BME280;5877;50.930;6.918;2023-12-28T03:12:19;100693.28;;;11.94;70.25
11643;BME280;5877;50.930;6.918;2023-12-28T03:17:13;100585.81;;;10.93;71.54
11643;BME280;5877;50.930;6.918;2023-12-28T03:22:08;100612.63;;;11.26;71.71
11643;BME280;5877;50.930;6.918;2023-12-28T03:27:01;100628.06;;;11.16;71.62
11643;BME280;5877;50.930;6.918;2023-12-28T03:31:57;100646.56;;;11.03;72.90
11643;BME280;5877;50.930;6.918;2023-12-28T03:36:51;100688.59;;;11.28;73.35
11643;BME280;5877;50.930;6.918;2023-12-28T03:41:44;100630.25;;;10.94;73.22
11643;BME280;5877;50.930;6.918;2023-12-28T03:46:50;100663.59;;;10.94;74.22
11643;BME280;5877;50.930;6.918;2023-12-28T03:51:50;100687.94;;;11.07;74.68
11643;BME280;5877;50.930;6.918;2023-12-28T03:56:59;100620.47;;;10.45;75.28
11643;BME280;5877;50.930;6.918;2023-12-28T04:02:05;100669.91;;;10.86;75.37
11643;BME280;5877;50.930;6.918;2023-12-28T04:06:57;100657.06;;;10.71;75.26
11643;BME280;5877;50.930;6.918;2023-12-28T04:11:49;100674.66;;;10.64;75.95
11643;BME280;5877;50.930;6.918;2023-12-28T04:16:44;100646.38;;;10.66;75.45
11643;BME280;5877;50.930;6.918;2023-12-28T04:21:37;100667.38;;;10.66;75.62
11643;BME280;5877;50.930;6.918;2023-12-28T04:26:33;100440.53;;;9.23;75.77
11643;BME280;5877;50.930;6.918;2023-12-28T04:31:27;100654.66;;;10.70;74.82
11643;BME280;5877;50.930;6.918;2023-12-28T04:36:20;100583.16;;;9.98;75.82
11643;BME280;5877;50.930;6.918;2023-12-28T04:41:27;100642.97;;;10.28;76.58
11643;BME280;5877;50.930;6.918;2023-12-28T04:46:23;100641.56;;;10.19;76.41
11643;BME280;5877;50.930;6.918;2023-12-28T04:51:15;100624.31;;;9.98;76.75
11643;BME280;5877;50.930;6.918;2023-12-28T04:56:09;100671.63;;;10.67;75.18
11643;BME280;5877;50.930;6.918;2023-12-28T05:01:01;100674.94;;;10.50;75.82
11643;BME280;5877;50.930;6.918;2023-12-28T05:05:57;100699.19;;;10.45;75.74
11643;BME280;5877;50.930;6.918;2023-12-28T05:10:51;100675.44;;;10.33;75.50
11643;BME280;5877;50.930;6.918;2023-12-28T05:16:11;100637.59;;;10.03;76.24
11643;BME280;5877;50.930;6.918;2023-12-28T05:21:38;100661.03;;;9.91;76.56
11643;BME280;5877;50.930;6.918;2023-12-28T05:26:38;100710.69;;;10.44;75.60
11643;BME280;5877;50.930;6.918;2023-12-28T05:31:32;100702.09;;;10.30;74.73
11643;BME280;5877;50.930;6.918;2023-12-28T05:36:25;100740.34;;;10.51;74.69
11643;BME280;5877;50.930;6.918;2023-12-28T05:41:18;100728.31;;;10.30;74.75
11643;BME280;5877;50.930;6.918;2023-12-28T05:46:11;100561.41;;;9.20;74.86
11643;BME280;5877;50.930;6.918;2023-12-28T05:51:10;100725.72;;;10.30;74.40
11643;BME280;5877;50.930;6.918;2023-12-28T05:56:03;100746.09;;;10.28;73.61
11643;BME280;5877;50.930;6.918;2023-12-28T06:00:56;100758.72;;;10.45;72.99
11643;BME280;5877;50.930;6.918;2023-12-28T06:05:49;100564.03;;;9.07;73.29
11643;BME280;5877;50.930;6.918;2023-12-28T06:10:44;100756.75;;;10.40;73.07
11643;BME280;5877;50.930;6.918;2023-12-28T06:15:52;100711.78;;;10.17;72.36
11643;BME280;5877;50.930;6.918;2023-12-28T06:20:45;100754.88;;;10.54;72.27
11643;BME280;5877;50.930;6.918;2023-12-28T06:25:54;100714.22;;;10.12;71.59
11643;BME280;5877;50.930;6.918;2023-12-28T06:30:47;100706.56;;;10.10;71.52
11643;BME280;5877;50.930;6.918;2023-12-28T06:35:40;100752.56;;;10.26;72.20
11643;BME280;5877;50.930;6.918;2023-12-28T06:40:34;100769.22;;;10.51;71.78
11643;BME280;5877;50.930;6.918;2023-12-28T06:45:27;100745.00;;;10.49;71.01
11643;BME280;5877;50.930;6.918;2023-12-28T06:50:21;100703.72;;;10.18;70.43
11643;BME280;5877;50.930;6.918;2023-12-28T06:55:14;100695.84;;;10.25;70.39
11643;BME280;5877;50.930;6.918;2023-12-28T07:00:07;100761.44;;;11.14;68.00
11643;BME280;5877;50.930;6.918;2023-12-28T07:05:00;100721.88;;;10.71;69.12
11643;BME280;5877;50.930;6.918;2023-12-28T07:09:53;100740.66;;;10.74;68.45
11643;BME280;5877;50.930;6.918;2023-12-28T07:14:46;100743.44;;;10.80;68.50
11643;BME280;5877;50.930;6.918;2023-12-28T07:19:38;100440.44;;;8.78;68.18
11643;BME280;5877;50.930;6.918;2023-12-28T07:24:31;100458.31;;;8.95;68.02
11643;BME280;5877;50.930;6.918;2023-12-28T07:29:24;100751.56;;;10.71;68.53
11643;BME280;5877;50.930;6.918;2023-12-28T07:34:24;100757.66;;;10.65;68.91
11643;BME280;5877;50.930;6.918;2023-12-28T07:39:17;100768.00;;;10.47;68.95
11643;BME280;5877;50.930;6.918;2023-12-28T07:44:09;100808.31;;;10.66;68.70
11643;BME280;5877;50.930;6.918;2023-12-28T07:49:01;100734.69;;;10.48;68.15
11643;BME280;5877;50.930;6.918;2023-12-28T07:53:53;100515.69;;;9.16;67.23
11643;BME280;5877;50.930;6.918;2023-12-28T08:04:24;100778.31;;;10.49;68.20
11643;BME280;5877;50.930;6.918;2023-12-28T08:09:17;100830.25;;;10.91;67.79
11643;BME280;5877;50.930;6.918;2023-12-28T08:14:10;100685.19;;;10.06;67.57
11643;BME280;5877;50.930;6.918;2023-12-28T08:19:02;100765.56;;;10.52;67.06
11643;BME280;5877;50.930;6.918;2023-12-28T08:23:56;100854.69;;;11.36;66.80
11643;BME280;5877;50.930;6.918;2023-12-28T08:28:50;100799.56;;;10.85;66.57
11643;BME280;5877;50.930;6.918;2023-12-28T08:33:44;100869.47;;;11.31;66.47
11643;BME280;5877;50.930;6.918;2023-12-28T08:38:36;100767.63;;;10.95;66.16
11643;BME280;5877;50.930;6.918;2023-12-28T08:43:29;100849.53;;;11.55;66.13
11643;BME280;5877;50.930;6.918;2023-12-28T08:48:22;100797.84;;;11.42;64.96
11643;BME280;5877;50.930;6.918;2023-12-28T08:53:17;100856.28;;;11.76;65.09
11643;BME280;5877;50.930;6.918;2023-12-28T08:58:10;100786.38;;;11.36;64.82
11643;BME280;5877;50.930;6.918;2023-12-28T09:03:03;100449.28;;;9.49;64.15
11643;BME280;5877;50.930;6.918;2023-12-28T09:08:12;100869.78;;;11.86;64.32
11643;BME280;5877;50.930;6.918;2023-12-28T09:13:07;100867.44;;;12.02;64.30
11643;BME280;5877;50.930;6.918;2023-12-28T09:18:01;100847.41;;;12.01;63.45
11643;BME280;5877;50.930;6.918;2023-12-28T09:22:59;100812.50;;;11.88;63.57
11643;BME280;5877;50.930;6.918;2023-12-28T09:27:51;100759.34;;;11.54;63.47
11643;BME280;5877;50.930;6.918;2023-12-28T09:32:44;100749.69;;;11.48;63.62
11643;BME280;5877;50.930;6.918;2023-12-28T09:37:39;100856.44;;;12.55;62.29
11643;BME280;5877;50.930;6.918;2023-12-28T09:42:39;100881.75;;;12.93;61.78
11643;BME280;5877;50.930;6.918;2023-12-28T09:47:34;100599.66;;;11.50;60.17
11643;BME280;5877;50.930;6.918;2023-12-28T09:52:27;100858.78;;;13.12;59.49
11643;BME280;5877;50.930;6.918;2023-12-28T09:57:20;100843.56;;;13.32;58.33
11643;BME280;5877;50.930;6.918;2023-12-28T10:02:12;100800.91;;;13.05;58.64
11643;BME280;5877;50.930;6.918;2023-12-28T10:07:05;100866.91;;;14.23;57.06
11643;BME280;5877;50.930;6.918;2023-12-28T10:12:02;100873.38;;;14.63;55.61
11643;BME280;5877;50.930;6.918;2023-12-28T10:17:09;100763.97;;;13.88;55.96
11643;BME280;5877;50.930;6.918;2023-12-28T10:22:50;100854.44;;;15.06;54.62
11643;BME280;5877;50.930;6.918;2023-12-28T10:28:06;100843.78;;;15.29;53.50
11643;BME280;5877;50.930;6.918;2023-12-28T10:33:14;100795.09;;;14.85;53.28
11643;BME280;5877;50.930;6.918;2023-12-28T10:38:29;100369.34;;;12.09;53.09
11643;BME280;5877;50.930;6.918;2023-12-28T10:44:03;100835.66;;;15.19;52.34
11643;BME280;5877;50.930;6.918;2023-12-28T10:49:16;100834.22;;;14.59;53.92
11643;BME280;5877;50.930;6.918;2023-12-28T10:54:57;100823.41;;;14.61;53.08
11643;BME280;5877;50.930;6.918;2023-12-28T11:00:22;100677.94;;;13.64;53.34
11643;BME280;5877;50.930;6.918;2023-12-28T11:05:39;100818.94;;;14.38;53.26
11643;BME280;5877;50.930;6.918;2023-12-28T11:11:16;100824.34;;;14.95;52.80
11643;BME280;5877;50.930;6.918;2023-12-28T11:16:34;100814.25;;;15.20;52.23
11643;BME280;5877;50.930;6.918;2023-12-28T11:21:44;100810.34;;;15.23;51.68
11643;BME280;5877;50.930;6.918;2023-12-28T11:26:53;100810.47;;;15.16;51.72
11643;BME280;5877;50.930;6.918;2023-12-28T11:31:57;100800.88;;;15.27;51.36
11643;BME280;5877;50.930;6.918;2023-12-28T11:37:07;100783.09;;;15.22;51.08
11643;BME280;5877;50.930;6.918;2023-12-28T11:42:08;100729.63;;;14.75;51.47
11643;BME280;5877;50.930;6.918;2023-12-28T11:47:16;100754.19;;;15.66;49.64
11643;BME280;5877;50.930;6.918;2023-12-28T11:52:27;100779.84;;;15.66;49.46
11643;BME280;5877;50.930;6.918;2023-12-28T11:57:33;100791.88;;;15.73;49.36
11643;BME280;5877;50.930;6.918;2023-12-28T12:02:43;100748.28;;;15.59;49.43
11643;BME280;5877;50.930;6.918;2023-12-28T12:07:43;100529.06;;;14.12;49.29
11643;BME280;5877;50.930;6.918;2023-12-28T12:12:36;100779.00;;;15.60;49.61
11643;BME280;5877;50.930;6.918;2023-12-28T12:17:29;100624.84;;;14.98;49.25
11643;BME280;5877;50.930;6.918;2023-12-28T12:22:23;100528.91;;;14.47;48.92
11643;BME280;5877;50.930;6.918;2023-12-28T12:27:31;100760.03;;;16.23;48.23
11643;BME280;5877;50.930;6.918;2023-12-28T12:33:22;100749.59;;;15.78;48.63
11643;BME280;5877;50.930;6.918;2023-12-28T12:39:17;100741.97;;;15.82;48.58
11643;BME280;5877;50.930;6.918;2023-12-28T12:44:23;100745.81;;;15.91;48.55
11643;BME280;5877;50.930;6.918;2023-12-28T12:49:19;100753.84;;;15.96;47.89
11643;BME280;5877;50.930;6.918;2023-12-28T12:54:17;100671.63;;;15.31;48.64
11643;BME280;5877;50.930;6.918;2023-12-28T12:59:12;100755.72;;;15.62;48.96
11643;BME280;5877;50.930;6.918;2023-12-28T13:04:10;100719.44;;;15.57;48.56
11643;BME280;5877;50.930;6.918;2023-12-28T13:09:07;100692.38;;;15.55;48.20
11643;BME280;5877;50.930;6.918;2023-12-28T13:13:59;100759.16;;;15.29;49.32
11643;BME280;5877;50.930;6.918;2023-12-28T13:18:52;100689.34;;;15.13;48.42
11643;BME280;5877;50.930;6.918;2023-12-28T13:23:49;100717.22;;;15.21;49.08
11643;BME280;5877;50.930;6.918;2023-12-28T13:28:41;100702.84;;;15.00;49.22
11643;BME280;5877;50.930;6.918;2023-12-28T13:33:34;100481.63;;;13.20;49.72
11643;BME280;5877;50.930;6.918;2023-12-28T13:38:27;100743.19;;;14.79;50.40
11643;BME280;5877;50.930;6.918;2023-12-28T13:43:19;100691.41;;;14.26;50.59
11643;BME280;5877;50.930;6.918;2023-12-28T13:48:12;100675.97;;;14.06;51.04
11643;BME280;5877;50.930;6.918;2023-12-28T13:53:04;100615.00;;;13.68;50.74
11643;BME280;5877;50.930;6.918;2023-12-28T13:58:00;100697.06;;;14.06;51.35
11643;BME280;5877;50.930;6.918;2023-12-28T14:02:53;100702.44;;;14.23;51.08
11643;BME280;5877;50.930;6.918;2023-12-28T14:07:46;100586.47;;;13.29;51.60
11643;BME280;5877;50.930;6.918;2023-12-28T14:12:41;100715.06;;;14.21;51.50
11643;BME280;5877;50.930;6.918;2023-12-28T14:17:37;100725.06;;;14.19;51.73
11643;BME280;5877;50.930;6.918;2023-12-28T14:22:43;100703.19;;;13.83;52.17
11643;BME280;5877;50.930;6.918;2023-12-28T14:27:40;100694.47;;;13.71;52.96
11643;BME280;5877;50.930;6.918;2023-12-28T14:32:33;100675.19;;;13.36;53.13
11643;BME280;5877;50.930;6.918;2023-12-28T14:37:29;100703.75;;;13.50;53.12
11643;BME280;5877;50.930;6.918;2023-12-28T14:42:21;100710.53;;;13.58;53.34
11643;BME280;5877;50.930;6.918;2023-12-28T14:47:14;100616.44;;;12.82;53.67
11643;BME280;5877;50.930;6.918;2023-12-28T14:52:07;100725.41;;;13.41;53.83
11643;BME280;5877;50.930;6.918;2023-12-28T14:57:00;100640.41;;;13.04;53.82
11643;BME280;5877;50.930;6.918;2023-12-28T15:01:53;100680.69;;;13.22;54.34
11643;BME280;5877;50.930;6.918;2023-12-28T15:06:46;100696.19;;;13.00;54.63
11643;BME280;5877;50.930;6.918;2023-12-28T15:11:39;100416.28;;;11.33;55.09
11643;BME280;5877;50.930;6.918;2023-12-28T15:16:40;100692.88;;;13.05;55.38
11643;BME280;5877;50.930;6.918;2023-12-28T15:21:35;100695.47;;;12.82;55.86
11643;BME280;5877;50.930;6.918;2023-12-28T15:26:30;100641.81;;;12.64;56.24
11643;BME280;5877;50.930;6.918;2023-12-28T15:31:23;100705.03;;;12.64;56.88
11643;BME280;5877;50.930;6.918;2023-12-28T15:36:15;100699.28;;;12.38;57.36
11643;BME280;5877;50.930;6.918;2023-12-28T15:41:10;100562.50;;;11.46;58.04
11643;BME280;5877;50.930;6.918;2023-12-28T15:46:05;100626.38;;;11.90;58.46
11643;BME280;5877;50.930;6.918;2023-12-28T15:50:58;100552.06;;;11.39;59.03
11643;BME280;5877;50.930;6.918;2023-12-28T15:55:55;100692.63;;;12.17;59.58
11643;BME280;5877;50.930;6.918;2023-12-28T16:01:06;100677.22;;;12.02;59.92
11643;BME280;5877;50.930;6.918;2023-12-28T16:05:59;100690.75;;;12.06;60.95
11643;BME280;5877;50.930;6.918;2023-12-28T16:11:00;100650.69;;;12.22;61.03
11643;BME280;5877;50.930;6.918;2023-12-28T16:15:55;100650.53;;;12.17;60.88
11643;BME280;5877;50.930;6.918;2023-12-28T16:20:48;100674.44;;;12.33;60.73
11643;BME280;5877;50.930;6.918;2023-12-28T16:25:44;100683.13;;;12.34;61.05
11643;BME280;5877;50.930;6.918;2023-12-28T16:30:36;100692.25;;;12.50;61.36
11643;BME280;5877;50.930;6.918;2023-12-28T16:35:28;100483.13;;;11.19;61.36
11643;BME280;5877;50.930;6.918;2023-12-28T16:40:21;100650.38;;;12.30;61.39
11643;BME280;5877;50.930;6.918;2023-12-28T16:45:14;100584.00;;;11.80;61.66
11643;BME280;5877;50.930;6.918;2023-12-28T16:50:07;100683.94;;;12.64;61.27
11643;BME280;5877;50.930;6.918;2023-12-28T16:55:01;100554.56;;;11.89;61.40
11643;BME280;5877;50.930;6.918;2023-12-28T16:59:54;100663.09;;;12.33;61.66
11643;BME280;5877;50.930;6.918;2023-12-28T17:05:01;100642.72;;;12.10;61.39
11643;BME280;5877;50.930;6.918;2023-12-28T17:09:56;100663.78;;;12.58;60.79
11643;BME280;5877;50.930;6.918;2023-12-28T17:14:55;100585.53;;;11.87;60.58
11643;BME280;5877;50.930;6.918;2023-12-28T17:19:52;100675.34;;;12.57;59.86
11643;BME280;5877;50.930;6.918;2023-12-28T17:25:00;100694.63;;;12.70;59.54
11643;BME280;5877;50.930;6.918;2023-12-28T17:30:00;100637.81;;;12.14;59.50
11643;BME280;5877;50.930;6.918;2023-12-28T17:34:57;100634.91;;;11.85;59.51
11643;BME280;5877;50.930;6.918;2023-12-28T17:39:55;100649.97;;;11.96;59.36
11643;BME280;5877;50.930;6.918;2023-12-28T17:44:54;100685.63;;;12.29;59.77
11643;BME280;5877;50.930;6.918;2023-12-28T17:49:53;100627.91;;;11.54;60.49
11643;BME280;5877;50.930;6.918;2023-12-28T17:54:49;100691.22;;;11.78;60.33
11643;BME280;5877;50.930;6.918;2023-12-28T17:59:42;100461.41;;;10.44;60.01
11643;BME280;5877;50.930;6.918;2023-12-28T18:04:35;100696.00;;;11.37;61.14
11643;BME280;5877;50.930;6.918;2023-12-28T18:09:33;100698.63;;;11.62;60.83
11643;BME280;5877;50.930;6.918;2023-12-28T18:14:32;100690.69;;;11.19;62.04
11643;BME280;5877;50.930;6.918;2023-12-28T18:19:25;100697.53;;;11.20;62.00
11643;BME280;5877;50.930;6.918;2023-12-28T18:24:20;100505.53;;;9.91;62.13
11643;BME280;5877;50.930;6.918;2023-12-28T18:29:12;100641.22;;;10.85;61.96
11643;BME280;5877;50.930;6.918;2023-12-28T18:34:05;100624.78;;;10.64;62.30
11643;BME280;5877;50.930;6.918;2023-12-28T18:38:57;100666.31;;;11.05;62.24
11643;BME280;5877;50.930;6.918;2023-12-28T18:43:51;100650.72;;;10.86;62.68
11643;BME280;5877;50.930;6.918;2023-12-28T18:48:46;100678.97;;;10.90;62.69
11643;BME280;5877;50.930;6.918;2023-12-28T18:54:08;100706.06;;;11.16;62.50
11643;BME280;5877;50.930;6.918;2023-12-28T18:59:06;100559.75;;;10.03;63.64
11643;BME280;5877;50.930;6.918;2023-12-28T19:03:59;100337.81;;;8.63;63.90
11643;BME280;5877;50.930;6.918;2023-12-28T19:08:57;100642.94;;;10.34;64.51
11643;BME280;5877;50.930;6.918;2023-12-28T19:14:25;100690.28;;;10.91;64.63
11643;BME280;5877;50.930;6.918;2023-12-28T19:19:27;100401.22;;;8.65;65.08
11643;BME280;5877;50.930;6.918;2023-12-28T19:30:27;100633.53;;;10.14;65.71
11643;BME280;5877;50.930;6.918;2023-12-28T19:35:23;100625.03;;;10.18;65.52
11643;BME280;5877;50.930;6.918;2023-12-28T19:40:31;100162.69;;;7.26;65.49
11643;BME280;5877;50.930;6.918;2023-12-28T19:45:46;100694.69;;;10.59;65.83
11643;BME280;5877;50.930;6.918;2023-12-28T19:50:51;100101.06;;;6.79;65.45
11643;BME280;5877;50.930;6.918;2023-12-28T19:55:47;100566.28;;;9.81;65.16
11643;BME280;5877;50.930;6.918;2023-12-28T20:01:35;100694.06;;;10.63;65.81
11643;BME280;5877;50.930;6.918;2023-12-28T20:06:29;100656.06;;;10.34;65.44
11643;BME280;5877;50.930;6.918;2023-12-28T20:11:29;100628.09;;;10.53;65.10
11643;BME280;5877;50.930;6.918;2023-12-28T20:16:28;100625.06;;;10.12;66.02
11643;BME280;5877;50.930;6.918;2023-12-28T20:21:23;100372.03;;;8.62;65.16
11643;BME280;5877;50.930;6.918;2023-12-28T20:26:34;100700.91;;;11.02;64.52
11643;BME280;5877;50.930;6.918;2023-12-28T20:31:42;100596.88;;;10.00;65.84
11643;BME280;5877;50.930;6.918;2023-12-28T20:36:39;100479.50;;;9.51;64.96
11643;BME280;5877;50.930;6.918;2023-12-28T20:41:46;100654.59;;;11.33;63.13
11643;BME280;5877;50.930;6.918;2023-12-28T20:46:40;100666.63;;;11.65;62.06
11643;BME280;5877;50.930;6.918;2023-12-28T20:51:49;100296.78;;;9.08;62.28
11643;BME280;5877;50.930;6.918;2023-12-28T20:56:57;100661.16;;;11.67;61.32
11643;BME280;5877;50.930;6.918;2023-12-28T21:01:58;100307.91;;;9.67;60.73
11643;BME280;5877;50.930;6.918;2023-12-28T21:06:53;100666.09;;;12.00;61.04
11643;BME280;5877;50.930;6.918;2023-12-28T21:11:49;100570.00;;;11.24;61.72
11643;BME280;5877;50.930;6.918;2023-12-28T21:16:44;100274.50;;;9.31;61.44
11643;BME280;5877;50.930;6.918;2023-12-28T21:21:45;100530.34;;;11.26;60.42
11643;BME280;5877;50.930;6.918;2023-12-28T21:26:43;100421.69;;;11.20;58.84
11643;BME280;5877;50.930;6.918;2023-12-28T21:31:35;100662.34;;;12.44;58.92
11643;BME280;5877;50.930;6.918;2023-12-28T21:36:29;100511.69;;;11.52;58.75
11643;BME280;5877;50.930;6.918;2023-12-28T21:41:27;100558.56;;;11.92;58.76
11643;BME280;5877;50.930;6.918;2023-12-28T21:46:20;100322.53;;;10.31;59.19
11643;BME280;5877;50.930;6.918;2023-12-28T21:51:13;100618.28;;;12.21;59.66
11643;BME280;5877;50.930;6.918;2023-12-28T21:56:07;100614.06;;;12.50;59.17
11643;BME280;5877;50.930;6.918;2023-12-28T22:00:59;100584.00;;;11.80;60.02
11643;BME280;5877;50.930;6.918;2023-12-28T22:06:04;100524.44;;;11.67;59.85
11643;BME280;5877;50.930;6.918;2023-12-28T22:11:05;100596.34;;;11.97;59.93
11643;BME280;5877;50.930;6.918;2023-12-28T22:15:59;100589.78;;;12.18;59.13
11643;BME280;5877;50.930;6.918;2023-12-28T22:20:52;100528.38;;;11.76;59.69
11643;BME280;5877;50.930;6.918;2023-12-28T22:25:46;100374.13;;;10.55;59.87
11643;BME280;5877;50.930;6.918;2023-12-28T22:30:39;100625.97;;;12.23;59.97
11643;BME280;5877;50.930;6.918;2023-12-28T22:35:35;100036.72;;;8.40;60.19
11643;BME280;5877;50.930;6.918;2023-12-28T22:40:27;100431.09;;;10.73;60.78
11643;BME280;5877;50.930;6.918;2023-12-28T22:45:20;100604.38;;;12.02;61.13
11643;BME280;5877;50.930;6.918;2023-12-28T22:50:13;100552.19;;;11.63;60.99
11643;BME280;5877;50.930;6.918;2023-12-28T22:55:09;100527.38;;;11.59;61.60
11643;BME280;5877;50.930;6.918;2023-12-28T23:00:04;100522.41;;;11.69;61.16
11643;BME280;5877;50.930;6.918;2023-12-28T23:04:58;100525.47;;;11.84;60.89
11643;BME280;5877;50.930;6.918;2023-12-28T23:09:51;100520.78;;;11.68;61.11
11643;BME280;5877;50.930;6.918;2023-12-28T23:14:44;100580.25;;;12.06;61.09
11643;BME280;5877;50.930;6.918;2023-12-28T23:19:42;100378.28;;;11.18;60.75
11643;BME280;5877;50.930;6.918;2023-12-28T23:24:41;100501.59;;;11.86;60.76
11643;BME280;5877;50.930;6.918;2023-12-28T23:29:38;100567.25;;;12.52;60.34
11643;BME280;5877;50.930;6.918;2023-12-28T23:34:31;100199.78;;;9.96;60.62
11643;BME280;5877;50.930;6.918;2023-12-28T23:39:28;100524.50;;;11.97;61.09
11643;BME280;5877;50.930;6.918;2023-12-28T23:44:20;100473.78;;;11.78;60.99
11643;BME280;5877;50.930;6.918;2023-12-28T23:49:12;100495.94;;;12.00;60.69
11643;BME280;5877;50.930;6.918;2023-12-28T23:54:07;100525.97;;;12.23;60.99
11643;BME280;5877;50.930;6.918;2023-12-28T23:59:02;100557.94;;;12.38;61.07
